Time;durP1;ratioP1;P1;durP2;ratioP2;P2;SDS_P1;SDS_P2;PMS_P1;PMS_P2;Temp;Humidity;BMP_temperature;BMP_pressure;BME280_temperature;BME280_humidity;BME280_pressure;Samples;Min_cycle;Max_cycle;Signal;HPM_P1;HPM_P2
2022/05/02 00:00:08;;;;;;;15.33;14.13;;;;;;;7.76;100.00;97173.88;5042535;28;20220;-55
2022/05/02 00:02:38;;;;;;;16.77;15.27;;;;;;;7.73;100.00;97172.38;5041011;28;20747;-57
2022/05/02 00:05:08;;;;;;;15.37;14.03;;;;;;;7.71;100.00;97168.28;5003117;28;20934;-55
2022/05/02 00:07:36;;;;;;;15.50;14.20;;;;;;;7.68;100.00;97172.06;5037087;28;20377;-57
2022/05/02 00:10:06;;;;;;;15.17;13.97;;;;;;;7.60;100.00;97167.63;5011317;28;20234;-52
2022/05/02 00:12:34;;;;;;;15.00;13.70;;;;;;;7.57;100.00;97162.66;5037961;28;20208;-59
2022/05/02 00:15:03;;;;;;;14.13;12.93;;;;;;;7.56;100.00;97162.84;5030294;28;20943;-55
2022/05/02 00:20:14;;;;;;;14.80;13.53;;;;;;;7.54;100.00;97165.63;4987169;28;20264;-55
2022/05/02 00:22:42;;;;;;;15.97;14.67;;;;;;;7.47;100.00;97160.22;5039697;28;20682;-57
2022/05/02 00:25:10;;;;;;;15.00;13.80;;;;;;;7.46;100.00;97163.84;5022252;28;20221;-56
2022/05/02 00:27:39;;;;;;;15.97;14.67;;;;;;;7.40;100.00;97167.13;5024973;28;20223;-58
2022/05/02 00:30:08;;;;;;;14.37;13.17;;;;;;;7.33;100.00;97168.75;5027674;28;20314;-57
2022/05/02 00:32:37;;;;;;;12.90;11.90;;;;;;;7.24;100.00;97160.84;5039325;28;20294;-57
2022/05/02 00:35:05;;;;;;;14.57;13.27;;;;;;;7.23;100.00;97163.66;5002648;28;20211;-57
2022/05/02 00:37:35;;;;;;;15.30;13.93;;;;;;;7.20;100.00;97158.72;5042747;28;20216;-57
2022/05/02 00:40:03;;;;;;;15.20;13.80;;;;;;;7.23;100.00;97171.56;5028216;28;20676;-56
2022/05/02 00:42:32;;;;;;;15.23;13.80;;;;;;;7.23;100.00;97164.47;5027648;28;20234;-58
2022/05/02 00:45:00;;;;;;;15.03;13.73;;;;;;;7.25;100.00;97169.59;5026690;28;20199;-56
2022/05/02 00:47:28;;;;;;;15.17;13.87;;;;;;;7.20;100.00;97161.34;5041692;28;20228;-58
2022/05/02 00:49:56;;;;;;;15.03;13.83;;;;;;;7.18;100.00;97161.50;5036965;28;20931;-54
2022/05/02 00:52:24;;;;;;;14.33;13.10;;;;;;;7.15;100.00;97159.19;5004478;28;20225;-53
2022/05/02 00:54:53;;;;;;;14.80;13.57;;;;;;;7.21;100.00;97155.09;5029097;28;20203;-54
2022/05/02 00:57:22;;;;;;;14.90;13.60;;;;;;;7.12;100.00;97159.53;5038128;28;20298;-53
2022/05/02 00:59:50;;;;;;;15.10;13.83;;;;;;;7.03;100.00;97165.78;5035378;28;20225;-57
2022/05/02 01:02:18;;;;;;;15.07;13.87;;;;;;;6.97;100.00;97161.13;5048065;28;20203;-54
2022/05/02 01:04:46;;;;;;;14.23;13.03;;;;;;;6.89;100.00;97164.59;5039436;28;20206;-57
2022/05/02 01:07:19;;;;;;;14.87;13.50;;;;;;;6.88;100.00;97158.47;5013373;28;20221;-53
2022/05/02 01:09:48;;;;;;;14.67;13.37;;;;;;;6.86;100.00;97154.38;5040106;28;20231;-57
2022/05/02 01:12:20;;;;;;;13.87;12.67;;;;;;;6.83;100.00;97152.06;5040247;28;20643;-53
2022/05/02 01:14:52;;;;;;;15.07;13.77;;;;;;;6.77;100.00;97149.06;5017959;28;20214;-52
2022/05/02 01:17:20;;;;;;;14.53;13.23;;;;;;;6.73;100.00;97154.84;5052773;28;20203;-58
2022/05/02 01:19:49;;;;;;;14.27;13.07;;;;;;;6.76;100.00;97151.88;5045397;28;20472;-54
2022/05/02 01:22:19;;;;;;;14.40;13.20;;;;;;;6.75;100.00;97144.97;5007563;28;20225;-60
2022/05/02 01:24:49;;;;;;;14.83;13.43;;;;;;;6.67;100.00;97148.38;5039245;28;20208;-55
2022/05/02 01:27:18;;;;;;;14.83;13.60;;;;;;;6.59;100.00;97148.38;5033184;28;20332;-57
2022/05/02 01:29:46;;;;;;;15.53;14.17;;;;;;;6.54;100.00;97151.47;5029306;28;20308;-51
2022/05/02 01:32:16;;;;;;;15.70;14.27;;;;;;;6.56;100.00;97144.22;5027790;28;20211;-53
2022/05/02 01:34:44;;;;;;;15.47;14.13;;;;;;;6.53;100.00;97144.56;5040058;28;20199;-54
2022/05/02 01:37:14;;;;;;;15.20;13.90;;;;;;;6.52;100.00;97140.28;5002796;28;20227;-54
2022/05/02 01:39:44;;;;;;;15.33;14.13;;;;;;;6.47;100.00;97135.50;5044591;28;20227;-57
2022/05/02 01:42:13;;;;;;;14.80;13.50;;;;;;;6.47;100.00;97132.88;5027547;28;20214;-54
2022/05/02 01:44:41;;;;;;;14.67;13.47;;;;;;;6.44;100.00;97138.47;5027648;28;20233;-56
2022/05/02 01:47:09;;;;;;;15.13;13.87;;;;;;;6.40;100.00;97131.84;5033053;28;20238;-56
2022/05/02 01:49:37;;;;;;;14.30;13.13;;;;;;;6.40;100.00;97131.84;5043612;28;20638;-58
2022/05/02 01:52:07;;;;;;;16.67;14.90;;;;;;;6.36;100.00;97126.09;5042134;28;20210;-55
2022/05/02 01:54:35;;;;;;;15.03;13.73;;;;;;;6.28;100.00;97126.06;5004319;28;20212;-58
2022/05/02 01:57:05;;;;;;;14.77;13.40;;;;;;;6.26;100.00;97128.03;5026537;28;20209;-53
2022/05/02 01:59:33;;;;;;;15.73;14.43;;;;;;;6.14;100.00;97134.53;5030522;28;20735;-55
2022/05/02 02:02:01;;;;;;;14.63;13.37;;;;;;;6.06;100.00;97127.41;5029363;28;20868;-55
2022/05/02 02:07:15;;;;;;;15.60;14.03;;;;;;;5.99;100.00;97121.94;5046287;28;20226;-55
2022/05/02 02:09:43;;;;;;;14.20;12.93;;;;;;;5.98;100.00;97119.44;5004408;28;20920;-58
2022/05/02 02:12:12;;;;;;;14.10;12.70;;;;;;;5.93;100.00;97119.94;5026595;28;20202;-57
2022/05/02 02:14:41;;;;;;;14.33;13.13;;;;;;;5.95;100.00;97125.88;5030984;28;20278;-57
2022/05/02 02:17:09;;;;;;;16.63;13.67;;;;;;;5.90;100.00;97115.81;5028757;28;20290;-56
2022/05/02 02:19:37;;;;;;;14.43;13.20;;;;;;;5.99;100.00;97114.03;5018913;28;20226;-58
2022/05/02 02:22:17;;;;;;;14.10;12.93;;;;;;;5.97;100.00;97121.28;5044407;28;20211;-54
2022/05/02 02:24:46;;;;;;;13.97;12.87;;;;;;;5.97;100.00;97131.78;5006704;28;20212;-53
2022/05/02 02:27:17;;;;;;;15.57;13.97;;;;;;;5.83;100.00;97129.72;5039873;28;20241;-59
2022/05/02 02:29:45;;;;;;;14.57;13.37;;;;;;;5.78;100.00;97124.94;5040492;28;20239;-55
2022/05/02 02:32:13;;;;;;;15.37;14.03;;;;;;;5.70;100.00;97125.72;5023055;28;20289;-58
2022/05/02 02:34:42;;;;;;;14.37;13.27;;;;;;;5.59;100.00;97124.16;5037103;28;20210;-53
2022/05/02 02:37:11;;;;;;;13.40;12.30;;;;;;;5.53;100.00;97118.69;5041442;28;20214;-55
2022/05/02 02:39:39;;;;;;;13.97;12.57;;;;;;;5.50;100.00;97115.41;5000437;28;20594;-57
2022/05/02 02:42:08;;;;;;;13.70;12.50;;;;;;;5.45;100.00;97114.19;5046875;28;20207;-57
2022/05/02 02:44:38;;;;;;;13.83;12.67;;;;;;;5.40;100.00;97108.59;5017587;28;20196;-58
2022/05/02 02:47:06;;;;;;;13.93;12.47;;;;;;;5.35;100.00;97117.75;5023667;28;20238;-56
2022/05/02 02:49:34;;;;;;;13.23;12.03;;;;;;;5.33;100.00;97103.94;5030130;28;20231;-59
2022/05/02 02:52:03;;;;;;;13.53;12.33;;;;;;;5.34;100.00;97110.84;5045195;28;20230;-57
2022/05/02 02:54:31;;;;;;;14.63;13.33;;;;;;;5.33;100.00;97108.38;4998050;28;20829;-53
2022/05/02 02:56:59;;;;;;;15.17;13.87;;;;;;;5.30;100.00;97103.41;5047981;28;20256;-59
2022/05/02 02:59:27;;;;;;;15.27;13.97;;;;;;;5.31;100.00;97102.44;5022630;28;20310;-59
2022/05/02 03:01:57;;;;;;;14.13;12.67;;;;;;;5.26;100.00;97109.94;5027261;28;20203;-55
2022/05/02 03:07:12;;;;;;;14.73;13.40;;;;;;;5.22;100.00;97099.75;5044834;28;20200;-59
2022/05/02 03:09:40;;;;;;;15.20;13.90;;;;;;;5.15;100.00;97084.75;5038983;28;20306;-58
2022/05/02 03:12:10;;;;;;;14.83;13.63;;;;;;;5.12;100.00;97085.88;5001693;28;20289;-57
2022/05/02 03:14:38;;;;;;;16.10;14.70;;;;;;;5.00;100.00;97085.28;5027277;28;20194;-52
2022/05/02 03:17:07;;;;;;;16.20;14.80;;;;;;;5.02;100.00;97095.63;5025221;28;20696;-57
2022/05/02 03:19:35;;;;;;;14.87;13.57;;;;;;;4.97;100.00;97095.25;5030706;28;20219;-55
2022/05/02 03:22:04;;;;;;;13.53;12.40;;;;;;;4.90;100.00;97088.00;5042481;28;20210;-56
2022/05/02 03:24:32;;;;;;;15.03;13.73;;;;;;;4.87;100.00;97090.91;5041435;28;20322;-56
2022/05/02 03:27:01;;;;;;;14.47;13.17;;;;;;;4.79;100.00;97090.84;4994030;28;20228;-58
2022/05/02 03:29:29;;;;;;;14.33;12.93;;;;;;;4.98;100.00;97086.41;5016060;28;20906;-57
2022/05/02 03:31:57;;;;;;;15.93;14.53;;;;;;;4.90;100.00;97085.38;5042068;28;20231;-56
2022/05/02 03:34:26;;;;;;;15.43;13.93;;;;;;;4.86;100.00;97091.91;5007826;28;20214;-51
2022/05/02 03:36:55;;;;;;;16.10;14.70;;;;;;;4.83;100.00;97089.56;5042755;28;20294;-59
2022/05/02 03:39:23;;;;;;;16.00;14.67;;;;;;;4.86;100.00;97091.06;5018800;28;20922;-58
2022/05/02 03:41:51;;;;;;;15.80;14.40;;;;;;;4.94;100.00;97088.53;5007713;28;20789;-57
2022/05/02 03:44:19;;;;;;;15.43;14.03;;;;;;;4.93;100.00;97090.31;5043916;28;20237;-58
2022/05/02 03:46:47;;;;;;;18.27;15.67;;;;;;;4.85;100.00;97090.25;4995316;28;20211;-57
2022/05/02 03:49:16;;;;;;;23.20;16.93;;;;;;;4.80;100.00;97091.66;5004213;28;20251;-59
2022/05/02 03:51:45;;;;;;;16.77;14.97;;;;;;;4.84;100.00;97090.38;5024254;28;20219;-57
2022/05/02 03:54:13;;;;;;;16.60;14.57;;;;;;;4.81;100.00;97093.31;5045162;28;20290;-56
2022/05/02 03:56:41;;;;;;;17.10;15.40;;;;;;;4.79;100.00;97093.47;5044329;28;20280;-56
2022/05/02 03:59:10;;;;;;;17.17;15.67;;;;;;;4.80;100.00;97091.66;4999155;28;20318;-58
2022/05/02 04:01:40;;;;;;;15.30;13.90;;;;;;;4.74;100.00;97095.72;5025498;28;20375;-55
2022/05/02 04:04:08;;;;;;;15.43;14.17;;;;;;;4.71;100.00;97096.84;4996850;28;20260;-53
2022/05/02 04:06:37;;;;;;;16.43;14.93;;;;;;;4.70;100.00;97094.34;5025526;28;20214;-53
2022/05/02 04:09:06;;;;;;;14.20;12.87;;;;;;;4.68;100.00;97096.28;5042154;28;20847;-57
2022/05/02 04:11:35;;;;;;;14.07;12.87;;;;;;;4.66;100.00;97096.47;5041058;28;20223;-57
2022/05/02 04:14:03;;;;;;;15.20;13.80;;;;;;;4.64;100.00;97099.22;4993699;28;20955;-54
2022/05/02 04:16:31;;;;;;;15.93;14.50;;;;;;;4.64;100.00;97099.22;5021652;28;20212;-57
2022/05/02 04:18:59;;;;;;;17.20;15.50;;;;;;;4.62;100.00;97097.72;5044982;28;20203;-54
2022/05/02 04:21:27;;;;;;;16.10;14.57;;;;;;;4.62;100.00;97095.09;5018482;28;20232;-52
2022/05/02 04:23:59;;;;;;;16.43;14.80;;;;;;;4.60;100.00;97107.56;5039821;28;20679;-57
2022/05/02 04:26:29;;;;;;;15.83;14.43;;;;;;;4.61;100.00;97094.28;5042576;28;20358;-57
2022/05/02 04:28:57;;;;;;;15.27;13.87;;;;;;;4.64;100.00;97107.09;4973644;28;20290;-57
2022/05/02 04:31:25;;;;;;;15.63;14.33;;;;;;;4.68;100.00;97101.53;4994362;28;20230;-57
2022/05/02 04:33:53;;;;;;;15.23;13.87;;;;;;;4.73;100.00;97099.28;5040846;28;20582;-57
2022/05/02 04:36:21;;;;;;;16.97;15.40;;;;;;;4.75;100.00;97105.25;5017340;28;23082;-58
2022/05/02 04:38:50;;;;;;;15.17;13.67;;;;;;;4.69;100.00;97100.56;5044596;28;20198;-59
2022/05/02 04:41:18;;;;;;;16.30;14.87;;;;;;;4.81;100.00;97109.06;5038135;28;20215;-57
2022/05/02 04:43:51;;;;;;;14.77;13.47;;;;;;;4.80;100.00;97116.13;5003252;28;20298;-56
2022/05/02 04:46:20;;;;;;;14.90;13.60;;;;;;;4.88;100.00;97110.09;5043688;28;20232;-54
2022/05/02 04:48:48;;;;;;;16.63;15.20;;;;;;;5.00;100.00;97111.56;5027897;28;20559;-59
2022/05/02 04:51:16;;;;;;;16.43;14.97;;;;;;;5.01;100.00;97109.72;5037797;28;20246;-60
2022/05/02 04:53:45;;;;;;;16.13;14.73;;;;;;;5.13;100.00;97107.72;5022280;28;20794;-59
2022/05/02 04:56:13;;;;;;;15.47;14.27;;;;;;;5.21;100.00;97108.59;5047437;28;20329;-56
2022/05/02 04:58:42;;;;;;;16.57;14.63;;;;;;;5.48;100.00;97106.81;5028141;28;20206;-59
2022/05/02 05:01:11;;;;;;;15.40;14.00;;;;;;;5.61;100.00;97106.41;5007382;28;20223;-59
2022/05/02 05:03:40;;;;;;;16.57;14.97;;;;;;;5.61;100.00;97101.16;5029249;28;20204;-58
2022/05/02 05:06:08;;;;;;;17.70;15.97;;;;;;;5.64;100.00;97108.72;5014098;28;20203;-57
2022/05/02 05:08:36;;;;;;;16.57;13.87;;;;;;;5.70;100.00;97103.88;5030015;28;20322;-53
2022/05/02 05:11:17;;;;;;;20.40;14.83;;;;;;;5.77;100.00;97105.69;5040749;28;20249;-54
2022/05/02 05:16:20;;;;;;;21.90;14.23;;;;;;;5.85;100.00;97107.56;5017555;28;20204;-58
2022/05/02 05:16:47;;;;;;;17.03;13.53;;;;;;;5.79;100.00;97102.94;5040745;28;20203;-58
2022/05/02 05:19:31;;;;;;;14.80;13.37;;;;;;;6.00;100.00;97105.19;5030710;28;20280;-56
2022/05/02 05:22:05;;;;;;;16.83;13.50;;;;;;;5.90;100.00;97107.91;5019185;28;20237;-56
2022/05/02 05:25:00;;;;;;;16.27;13.53;;;;;;;6.22;100.00;97101.19;5020692;28;20727;-56
2022/05/02 05:27:51;;;;;;;15.40;13.77;;;;;;;6.28;100.00;97107.63;5042354;28;20329;-59
2022/05/02 05:30:21;;;;;;;16.63;14.50;;;;;;;6.35;100.00;97102.53;5000828;28;23873;-57
2022/05/02 05:33:04;;;;;;;14.87;13.50;;;;;;;6.47;100.00;97097.81;5038733;28;20299;-59
2022/05/02 05:35:43;;;;;;;17.03;15.17;;;;;;;6.61;100.00;97091.13;5040300;28;20203;-59
2022/05/02 05:38:12;;;;;;;15.10;13.33;;;;;;;6.56;100.00;97096.84;5042037;28;20287;-56
2022/05/02 05:40:42;;;;;;;15.40;13.93;;;;;;;6.46;100.00;97096.16;5026150;28;20226;-60
2022/05/02 05:43:19;;;;;;;14.97;13.60;;;;;;;6.45;100.00;97092.72;5042732;28;20970;-57
2022/05/02 05:45:57;;;;;;;14.43;12.97;;;;;;;6.44;100.00;97093.72;5003627;28;20217;-58
2022/05/02 05:48:38;;;;;;;28.23;14.87;;;;;;;6.48;100.00;97097.66;5025344;28;20229;-55
2022/05/02 05:51:15;;;;;;;23.03;14.63;;;;;;;6.45;100.00;97097.16;5025570;28;20265;-58
2022/05/02 05:53:51;;;;;;;36.13;14.47;;;;;;;6.43;100.00;97097.31;5045021;28;20317;-57
2022/05/02 05:56:31;;;;;;;17.70;14.03;;;;;;;6.61;100.00;97094.56;5042137;28;20211;-57
2022/05/02 05:59:06;;;;;;;24.27;15.30;;;;;;;6.60;100.00;97094.72;5043936;28;20272;-54
2022/05/02 06:01:46;;;;;;;30.20;16.57;;;;;;;6.64;100.00;97091.63;5003038;28;20229;-58
2022/05/02 06:04:17;;;;;;;20.47;15.33;;;;;;;6.73;100.00;97094.28;5024661;28;21008;-54
2022/05/02 06:06:45;;;;;;;22.57;17.13;;;;;;;6.87;100.00;97093.63;5042957;28;20304;-56
2022/05/02 06:09:15;;;;;;;20.43;18.27;;;;;;;7.22;100.00;97089.03;5029580;28;20688;-56
2022/05/02 06:11:46;;;;;;;26.07;18.17;;;;;;;7.44;100.00;97092.00;5046025;28;20280;-59
2022/05/02 06:14:16;;;;;;;29.50;18.30;;;;;;;7.54;100.00;97086.53;5045521;28;20199;-56
2022/05/02 06:19:34;;;;;;;25.23;17.17;;;;;;;7.76;100.00;97084.19;5048096;28;20498;-57
2022/05/02 06:22:04;;;;;;;21.97;16.27;;;;;;;7.83;100.00;97085.16;5004344;28;20203;-54
2022/05/02 06:24:33;;;;;;;17.90;16.17;;;;;;;8.03;100.00;97093.53;5045179;28;20287;-59
2022/05/02 06:27:02;;;;;;;19.10;17.43;;;;;;;8.09;100.00;97092.84;5027686;28;20219;-57
2022/05/02 06:29:30;;;;;;;16.97;15.47;;;;;;;8.28;100.00;97092.59;5038679;28;20326;-51
2022/05/02 06:32:00;;;;;;;17.73;16.20;;;;;;;8.51;100.00;97084.75;5016665;28;20214;-60
2022/05/02 06:34:29;;;;;;;17.27;15.57;;;;;;;8.80;100.00;97089.41;5000610;28;20974;-56
2022/05/02 06:37:06;;;;;;;17.80;16.30;;;;;;;9.10;100.00;97091.34;5030939;28;20591;-58
2022/05/02 06:39:46;;;;;;;17.40;15.90;;;;;;;9.25;100.00;97094.84;5033838;28;20374;-56
2022/05/02 06:42:22;;;;;;;16.97;15.40;;;;;;;9.64;100.00;97089.56;5024686;28;20213;-56
2022/05/02 06:45:01;;;;;;;16.87;15.40;;;;;;;10.05;100.00;97086.50;5039724;28;20194;-57
2022/05/02 06:47:40;;;;;;;15.67;14.33;;;;;;;10.16;100.00;97089.69;5040079;28;20206;-57
2022/05/02 06:50:08;;;;;;;14.63;13.43;;;;;;;10.47;100.00;97088.69;5005764;28;20260;-57
2022/05/02 06:52:41;;;;;;;16.03;14.70;;;;;;;10.81;100.00;97084.59;5024654;28;20249;-56
2022/05/02 06:55:17;;;;;;;15.10;13.90;;;;;;;11.07;100.00;97084.03;5044250;28;20203;-58
2022/05/02 06:57:58;;;;;;;15.53;14.33;;;;;;;11.44;100.00;97081.25;5033589;28;20301;-56
2022/05/02 07:00:31;;;;;;;14.67;13.50;;;;;;;11.72;100.00;97080.47;5040423;28;20754;-54
2022/05/02 07:03:25;;;;;;;14.43;13.03;;;;;;;11.99;100.00;97075.31;5045175;28;20276;-57
2022/05/02 07:06:05;;;;;;;14.10;12.77;;;;;;;12.47;100.00;97079.84;4999148;28;20217;-58
2022/05/02 07:08:42;;;;;;;14.50;13.30;;;;;;;12.87;100.00;97074.66;5026890;28;20850;-57
2022/05/02 07:11:14;;;;;;;12.50;11.40;;;;;;;13.03;100.00;97073.44;5047226;28;20244;-58
2022/05/02 07:13:53;;;;;;;13.00;11.90;;;;;;;13.51;100.00;97079.69;5032485;28;20204;-57
2022/05/02 07:16:23;;;;;;;12.03;11.13;;;;;;;13.96;100.00;97076.31;5037304;28;20311;-57
2022/05/02 07:19:17;;;;;;;11.53;10.63;;;;;;;13.96;100.00;97076.31;5043192;28;20271;-57
2022/05/02 07:21:52;;;;;;;10.40;9.60;;;;;;;14.12;100.00;97071.59;5033262;28;20206;-58
2022/05/02 07:24:36;;;;;;;12.27;11.30;;;;;;;14.38;100.00;97070.69;5027672;28;20989;-58
2022/05/02 07:27:10;;;;;;;14.20;11.33;;;;;;;14.36;100.00;97071.91;5031835;28;20413;-54
2022/05/02 07:29:39;;;;;;;12.40;11.20;;;;;;;14.25;100.00;97071.53;5028623;28;20303;-54
2022/05/02 07:32:08;;;;;;;10.57;9.77;;;;;;;14.34;100.00;97077.47;5044794;28;20204;-58
2022/05/02 07:34:37;;;;;;;10.87;9.77;;;;;;;14.43;100.00;97065.53;5041515;28;20295;-58
2022/05/02 07:37:06;;;;;;;10.17;9.47;;;;;;;14.39;100.00;97069.66;5010213;28;20714;-55
2022/05/02 07:39:36;;;;;;;10.80;9.90;;;;;;;14.59;100.00;97068.75;5027803;28;20306;-55
2022/05/02 07:42:05;;;;;;;11.27;10.37;;;;;;;14.66;100.00;97077.53;5029193;28;20203;-54
2022/05/02 07:44:35;;;;;;;10.07;8.93;;;;;;;14.84;100.00;97066.19;5026063;28;20233;-59
2022/05/02 07:47:04;;;;;;;9.60;8.90;;;;;;;14.98;100.00;97064.25;5043666;28;20291;-57
2022/05/02 07:49:34;;;;;;;9.70;8.77;;;;;;;14.91;100.00;97068.78;5030946;28;20199;-57
2022/05/02 07:52:03;;;;;;;9.40;8.60;;;;;;;14.92;100.00;97066.97;5008397;28;21005;-59
2022/05/02 07:54:38;;;;;;;10.00;9.10;;;;;;;14.94;100.00;97064.91;5013638;28;20336;-55
2022/05/02 07:57:08;;;;;;;9.13;8.33;;;;;;;15.00;100.00;97062.19;5050401;28;20209;-58
2022/05/02 07:59:37;;;;;;;9.03;8.33;;;;;;;15.06;100.00;97065.84;5006989;28;20232;-57
2022/05/02 08:02:06;;;;;;;11.83;10.73;;;;;;;15.36;100.00;97061.75;5042383;28;20201;-59
2022/05/02 08:04:37;;;;;;;9.77;8.97;;;;;;;15.38;100.00;97059.66;5040083;28;20203;-57
2022/05/02 08:07:11;;;;;;;9.10;8.43;;;;;;;15.20;100.00;97058.56;5000881;28;20963;-57
2022/05/02 08:09:56;;;;;;;8.83;8.03;;;;;;;15.33;100.00;97063.78;5019847;28;20229;-57
2022/05/02 08:12:28;;;;;;;7.90;7.40;;;;;;;15.32;100.00;97056.00;5027763;28;20676;-56
2022/05/02 08:15:03;;;;;;;8.83;7.93;;;;;;;15.53;100.00;97065.50;5027114;28;20295;-54
2022/05/02 08:17:47;;;;;;;10.03;9.20;;;;;;;15.74;100.00;97063.47;5038430;28;20301;-55
2022/05/02 08:20:24;;;;;;;7.70;7.10;;;;;;;15.75;100.00;97073.91;5038422;28;20793;-57
2022/05/02 08:28:57;;;;;;;7.27;6.77;;;;;;;16.02;100.00;97062.16;5049310;28;20231;-56
2022/05/02 08:31:36;;;;;;;7.63;7.03;;;;;;;16.01;100.00;97064.03;5025222;28;20309;-55
2022/05/02 08:34:13;;;;;;;6.90;6.40;;;;;;;16.06;100.00;97063.34;5019757;28;21916;-59
2022/05/02 08:36:51;;;;;;;7.00;6.50;;;;;;;16.33;100.00;97060.41;5010160;28;21624;-56
2022/05/02 08:39:25;;;;;;;7.03;6.43;;;;;;;16.29;100.00;97062.72;5021852;28;21580;-56
2022/05/02 08:42:19;;;;;;;7.23;6.73;;;;;;;16.24;100.00;97059.06;5023576;28;20762;-58
2022/05/02 08:45:34;;;;;;;5.77;5.37;;;;;;;16.34;100.00;97059.34;5047036;28;20222;-55
2022/05/02 08:48:34;;;;;;;7.40;6.90;;;;;;;16.54;100.00;97047.59;5044100;28;20298;-57
2022/05/02 08:51:49;;;;;;;6.45;6.03;;;;;;;16.48;100.00;97052.00;5008139;28;21899;-59
2022/05/02 08:55:02;;;;;;;6.67;6.13;;;;;;;16.70;100.00;97051.50;5022235;28;20651;-58
2022/05/02 08:58:18;;;;;;;6.70;6.20;;;;;;;16.69;99.78;97053.34;5029745;28;20294;-56
2022/05/02 09:01:05;;;;;;;6.97;6.27;;;;;;;16.74;98.52;97044.66;4980911;28;20298;-58
2022/05/02 09:04:10;;;;;;;6.30;5.80;;;;;;;16.62;95.09;97055.31;4981869;28;20208;-60
2022/05/02 09:07:08;;;;;;;6.38;5.97;;;;;;;16.76;88.85;97047.94;4979355;28;20532;-59
2022/05/02 09:09:44;;;;;;;5.70;5.30;;;;;;;16.89;80.47;97052.28;4963236;28;20229;-55
2022/05/02 09:12:49;;;;;;;6.00;5.60;;;;;;;17.01;87.88;97058.50;4962955;28;20249;-57
2022/05/02 09:15:40;;;;;;;6.07;5.67;;;;;;;17.29;91.02;97051.72;4970493;28;20212;-58
2022/05/02 09:19:00;;;;;;;6.03;5.50;;;;;;;17.44;87.33;97047.75;4955098;28;20224;-58
2022/05/02 09:21:36;;;;;;;7.27;6.50;;;;;;;17.53;85.80;97046.34;4947743;28;20254;-56
2022/05/02 09:24:43;;;;;;;5.67;5.23;;;;;;;17.57;87.79;97041.38;4902691;28;20214;-59
2022/05/02 09:27:36;;;;;;;6.40;5.90;;;;;;;17.63;86.73;97046.63;4928003;28;21159;-57
2022/05/02 09:30:22;;;;;;;6.23;5.83;;;;;;;17.90;76.06;97034.59;4936067;28;20370;-58
2022/05/02 09:33:05;;;;;;;6.07;5.67;;;;;;;17.30;79.86;97036.44;4932070;28;20309;-55
2022/05/02 09:35:36;;;;;;;5.40;5.00;;;;;;;17.41;82.28;97035.63;4982525;28;20863;-59
2022/05/02 09:38:19;;;;;;;6.10;5.60;;;;;;;17.18;78.36;97036.41;4963215;28;20244;-57
2022/05/02 09:40:48;;;;;;;5.93;5.43;;;;;;;17.42;84.92;97031.09;5005418;28;20739;-58
2022/05/02 09:49:33;;;;;;;5.37;4.83;;;;;;;17.67;81.71;97038.91;4984521;28;20315;-58
2022/05/02 09:49:47;;;;;;;5.50;5.13;;;;;;;18.27;73.62;97025.47;4998650;28;20209;-54
2022/05/02 09:52:25;;;;;;;5.47;5.07;;;;;;;18.34;69.79;97013.56;5001125;28;21158;-54
2022/05/02 09:57:59;;;;;;;5.13;4.73;;;;;;;18.35;64.80;97009.81;5045095;28;20279;-53
2022/05/02 10:03:25;;;;;;;5.20;4.80;;;;;;;18.46;64.80;97005.47;5014365;28;20333;-55
2022/05/02 10:05:58;;;;;;;4.57;4.27;;;;;;;18.45;62.39;97009.22;5038035;28;21000;-54
2022/05/02 10:08:54;;;;;;;5.30;4.80;;;;;;;18.48;63.47;97003.38;5043871;28;20969;-57
2022/05/02 10:11:45;;;;;;;4.93;4.53;;;;;;;18.45;62.95;97001.16;5043421;28;20226;-59
2022/05/02 10:14:35;;;;;;;5.40;5.00;;;;;;;18.36;63.63;96999.88;5029407;28;20206;-59
2022/05/02 10:17:07;;;;;;;58.20;19.50;;;;;;;18.45;62.41;97006.53;5036306;28;20280;-57
2022/05/02 10:19:53;;;;;;;69.83;20.90;;;;;;;18.71;61.73;96996.25;5029027;28;20228;-58
2022/05/02 10:22:31;;;;;;;5.33;4.90;;;;;;;18.85;55.54;96998.66;5038658;28;20201;-57
2022/05/02 10:25:11;;;;;;;11.40;5.60;;;;;;;19.15;54.25;96994.88;4998409;28;21035;-60
2022/05/02 10:28:04;;;;;;;5.63;4.97;;;;;;;19.51;53.36;96993.53;5045771;28;20613;-58
2022/05/02 10:30:43;;;;;;;9.00;4.70;;;;;;;19.56;53.84;96987.44;5029062;28;20254;-59
2022/05/02 10:33:16;;;;;;;4.73;4.50;;;;;;;19.76;52.10;96986.91;5026155;28;20908;-60
2022/05/02 10:35:47;;;;;;;5.20;4.80;;;;;;;20.04;52.62;96989.72;5043329;28;20289;-57
2022/05/02 10:38:20;;;;;;;4.37;4.07;;;;;;;19.98;50.03;96983.44;5051075;28;20221;-55
2022/05/02 10:40:51;;;;;;;4.93;4.30;;;;;;;19.84;53.02;96991.03;4999894;28;21715;-58
2022/05/02 10:43:25;;;;;;;4.97;4.67;;;;;;;19.70;49.98;96979.03;5042520;28;20211;-57
2022/05/02 10:45:54;;;;;;;4.43;4.13;;;;;;;19.90;50.99;96987.41;5034105;28;20203;-56
2022/05/02 10:48:34;;;;;;;4.93;4.63;;;;;;;20.25;50.47;96988.88;5041917;28;20690;-57
2022/05/02 10:51:08;;;;;;;4.53;4.23;;;;;;;20.22;52.24;96981.31;5044890;28;20254;-61
2022/05/02 10:53:52;;;;;;;4.40;4.20;;;;;;;20.51;50.40;96977.59;5037551;28;20764;-53
2022/05/02 10:56:24;;;;;;;4.77;4.37;;;;;;;20.76;49.57;96979.72;5007390;28;20217;-59
2022/05/02 10:58:54;;;;;;;4.47;4.27;;;;;;;21.15;48.35;96969.84;5038709;28;20199;-58
2022/05/02 11:01:54;;;;;;;4.87;4.60;;;;;;;21.16;46.54;96979.56;5028830;28;20350;-57
2022/05/02 11:04:33;;;;;;;5.00;4.70;;;;;;;21.19;46.27;96977.16;5031174;28;20218;-57
2022/05/02 11:07:08;;;;;;;4.80;4.40;;;;;;;21.40;45.88;96967.34;5043897;28;20294;-56
2022/05/02 11:09:41;;;;;;;4.97;4.57;;;;;;;21.67;43.54;96961.06;5036798;28;20219;-52
2022/05/02 11:12:15;;;;;;;17.03;10.90;;;;;;;21.30;43.99;96964.56;5005572;28;20234;-57
2022/05/02 11:14:52;;;;;;;5.17;4.87;;;;;;;21.45;44.93;96963.06;5038195;28;20240;-56
2022/05/02 11:17:27;;;;;;;4.90;4.60;;;;;;;21.66;46.01;96967.53;5027460;28;20294;-59
2022/05/02 11:22:57;;;;;;;5.20;4.70;;;;;;;21.39;44.60;96967.59;5044481;28;20219;-58
2022/05/02 11:25:37;;;;;;;5.23;4.63;;;;;;;20.79;47.00;96964.97;5040387;28;20229;-56
2022/05/02 11:28:19;;;;;;;4.43;4.13;;;;;;;20.74;46.51;96960.34;5008133;28;20218;-60
2022/05/02 11:30:48;;;;;;;4.47;4.07;;;;;;;20.74;48.77;96963.03;5039773;28;20326;-57
2022/05/02 11:33:22;;;;;;;4.73;4.43;;;;;;;20.78;46.83;96955.22;5027198;28;20229;-59
2022/05/02 11:35:54;;;;;;;4.43;4.00;;;;;;;20.33;49.10;96949.16;5027107;28;20309;-59
2022/05/02 11:38:29;;;;;;;4.40;4.10;;;;;;;20.12;49.15;96951.63;5042155;28;20211;-59
2022/05/02 11:41:00;;;;;;;4.67;4.37;;;;;;;20.21;47.63;96947.41;5039403;28;21145;-59
2022/05/02 11:43:31;;;;;;;4.70;4.40;;;;;;;20.25;46.94;96939.66;5009187;28;20276;-59
2022/05/02 11:46:06;;;;;;;4.20;4.00;;;;;;;20.30;47.64;96941.59;5039352;28;20198;-58
2022/05/02 11:48:53;;;;;;;4.60;4.27;;;;;;;19.81;52.79;96941.28;5046705;28;20197;-55
2022/05/02 11:51:39;;;;;;;4.97;4.63;;;;;;;19.89;58.72;96936.53;5031839;28;20338;-58
2022/05/02 11:54:15;;;;;;;4.60;4.20;;;;;;;19.83;51.40;96930.25;5039250;28;20268;-60
2022/05/02 11:56:57;;;;;;;4.67;4.37;;;;;;;20.21;51.11;96931.28;5021720;28;20209;-60
2022/05/02 11:59:33;;;;;;;4.40;4.17;;;;;;;20.33;47.35;96925.75;5044447;28;20900;-57
2022/05/02 12:02:04;;;;;;;5.23;4.60;;;;;;;20.41;46.49;96926.34;5037680;28;20724;-59
2022/05/02 12:04:36;;;;;;;4.70;4.40;;;;;;;20.56;46.80;96926.53;5040040;28;20843;-54
2022/05/02 12:07:06;;;;;;;9.50;4.03;;;;;;;21.09;46.55;96917.81;5023412;28;21087;-62
2022/05/02 12:09:35;;;;;;;3.83;3.63;;;;;;;21.94;46.56;96916.13;5044078;28;20582;-58
2022/05/02 12:12:07;;;;;;;4.40;4.00;;;;;;;22.50;44.22;96912.81;5043042;28;20288;-57
2022/05/02 12:14:37;;;;;;;4.03;3.80;;;;;;;22.09;43.20;96909.97;5008856;28;20214;-62
2022/05/02 12:17:07;;;;;;;3.93;3.53;;;;;;;22.41;45.89;96908.97;5045408;28;20256;-58
2022/05/02 12:19:36;;;;;;;3.90;3.70;;;;;;;22.48;42.04;96908.75;5029780;28;20693;-59
2022/05/02 12:22:06;;;;;;;5.30;4.17;;;;;;;22.18;41.33;96904.88;5030946;28;20242;-55